Time;durP1;ratioP1;P1;durP2;ratioP2;P2;SDS_P1;SDS_P2;PMS_P1;PMS_P2;Temp;Humidity;BMP_temperature;BMP_pressure;BME280_temperature;BME280_humidity;BME280_pressure;Samples;Min_cycle;Max_cycle;Signal;HPM_P1;HPM_P2
2022/01/16 00:00:09;;;;;;;0.47;0.10;;;;;;;;;;5052836;28;20765;-64
2022/01/16 00:05:18;;;;;;;0.47;0.10;;;;;;;;;;5052673;28;20087;-65
2022/01/16 00:07:43;;;;;;;0.82;0.10;;;;;;;;;;5053012;28;20025;-65
2022/01/16 00:10:09;;;;;;;0.00;0.00;;;;;;;;;;5052750;28;20036;-65
2022/01/16 00:12:35;;;;;;;1.20;0.13;;;;;;;;;;5052907;28;20464;-64
2022/01/16 00:15:01;;;;;;;0.45;0.20;;;;;;;;;;5052447;28;20056;-65
2022/01/16 00:17:28;;;;;;;0.38;0.20;;;;;;;;;;5052915;28;20075;-65
2022/01/16 00:19:53;;;;;;;0.32;0.10;;;;;;;;;;5052581;28;20409;-64
2022/01/16 00:22:22;;;;;;;0.40;0.20;;;;;;;;;;5052584;28;20059;-64
2022/01/16 00:24:47;;;;;;;0.60;0.00;;;;;;;;;;5052494;28;20796;-64
2022/01/16 00:27:13;;;;;;;0.77;0.00;;;;;;;;;;5052367;28;20108;-66
2022/01/16 00:29:38;;;;;;;1.00;0.37;;;;;;;;;;5052560;28;20025;-65
2022/01/16 00:32:03;;;;;;;0.30;0.20;;;;;;;;;;5051142;28;20345;-65
2022/01/16 00:34:28;;;;;;;0.35;0.10;;;;;;;;;;5052506;28;20307;-66
2022/01/16 00:36:53;;;;;;;0.80;0.13;;;;;;;;;;5052486;28;20072;-65
2022/01/16 00:39:19;;;;;;;0.28;0.10;;;;;;;;;;5052114;28;20416;-65
2022/01/16 00:41:44;;;;;;;1.23;0.22;;;;;;;;;;5052322;28;20492;-66
2022/01/16 00:44:09;;;;;;;0.60;0.10;;;;;;;;;;5052207;28;20100;-64
2022/01/16 00:46:34;;;;;;;0.57;0.20;;;;;;;;;;5052326;28;20238;-65
2022/01/16 00:48:59;;;;;;;0.47;0.30;;;;;;;;;;5052070;28;20020;-64
2022/01/16 00:51:25;;;;;;;0.33;0.10;;;;;;;;;;5052097;28;20511;-65
2022/01/16 00:53:50;;;;;;;0.20;0.00;;;;;;;;;;5052008;28;20257;-65
2022/01/16 00:56:15;;;;;;;0.30;0.10;;;;;;;;;;5052078;28;20103;-65
2022/01/16 00:58:41;;;;;;;0.53;0.20;;;;;;;;;;5052204;28;20024;-64
2022/01/16 01:01:06;;;;;;;0.28;0.10;;;;;;;;;;5051749;28;20796;-64
2022/01/16 01:03:31;;;;;;;0.15;0.10;;;;;;;;;;5052104;28;20095;-64
2022/01/16 01:05:56;;;;;;;0.00;0.00;;;;;;;;;;5051948;28;20049;-66
2022/01/16 01:08:23;;;;;;;0.30;0.10;;;;;;;;;;5051959;28;20737;-66
2022/01/16 01:10:51;;;;;;;0.40;0.10;;;;;;;;;;5051909;28;20025;-64
2022/01/16 01:13:24;;;;;;;0.50;0.17;;;;;;;;;;5051784;28;20025;-65
2022/01/16 01:15:57;;;;;;;0.20;0.05;;;;;;;;;;5052069;28;20023;-65
2022/01/16 01:18:23;;;;;;;0.65;0.22;;;;;;;;;;5051886;28;20039;-65
2022/01/16 01:20:50;;;;;;;0.00;0.00;;;;;;;;;;5051724;28;20100;-64
2022/01/16 01:23:15;;;;;;;1.17;0.22;;;;;;;;;;5051732;28;20069;-64
2022/01/16 01:25:42;;;;;;;0.68;0.10;;;;;;;;;;5052219;28;20025;-65
2022/01/16 01:28:08;;;;;;;0.20;0.10;;;;;;;;;;5051706;28;20020;-64
2022/01/16 01:30:33;;;;;;;0.13;0.13;;;;;;;;;;5051938;28;20492;-66
2022/01/16 01:32:59;;;;;;;0.45;0.10;;;;;;;;;;5051871;28;20035;-65
2022/01/16 01:35:24;;;;;;;0.20;0.10;;;;;;;;;;5051709;28;20108;-65
2022/01/16 01:37:49;;;;;;;1.10;0.28;;;;;;;;;;5051861;28;20412;-65
2022/01/16 01:40:18;;;;;;;0.20;0.10;;;;;;;;;;5051590;28;20029;-64
2022/01/16 01:42:49;;;;;;;0.22;0.10;;;;;;;;;;5051731;28;20059;-64
2022/01/16 01:51:06;;;;;;;1.25;0.20;;;;;;;;;;5009301;28;20000;-65
2022/01/16 01:53:31;;;;;;;0.10;0.10;;;;;;;;;;5009640;28;20022;-65
2022/01/16 01:55:56;;;;;;;0.15;0.10;;;;;;;;;;5009560;28;20431;-66
2022/01/16 01:58:21;;;;;;;0.23;0.00;;;;;;;;;;5009442;28;20029;-65
2022/01/16 02:00:46;;;;;;;0.20;0.20;;;;;;;;;;5009125;28;20743;-64
2022/01/16 02:03:17;;;;;;;0.00;0.00;;;;;;;;;;5009194;28;20259;-65
2022/01/16 02:05:43;;;;;;;0.15;0.10;;;;;;;;;;5009570;28;20136;-65
2022/01/16 02:08:08;;;;;;;0.30;0.20;;;;;;;;;;5012910;28;20486;-65
2022/01/16 02:10:35;;;;;;;0.47;0.10;;;;;;;;;;5012998;28;20473;-66
2022/01/16 02:13:04;;;;;;;0.30;0.08;;;;;;;;;;5012720;28;20136;-64
2022/01/16 02:31:31;;;;;;;0.30;0.17;;;;;;;;;;5055300;28;20021;-65
2022/01/16 02:36:48;;;;;;;0.33;0.27;;;;;;;;;;5054643;28;20059;-65
2022/01/16 02:39:15;;;;;;;0.00;0.00;;;;;;;;;;5054354;28;20246;-65
2022/01/16 02:41:41;;;;;;;1.13;0.20;;;;;;;;;;5054465;28;20457;-66
2022/01/16 02:44:28;;;;;;;1.30;0.20;;;;;;;;;;5053094;28;20453;-65
2022/01/16 02:46:55;;;;;;;0.10;0.10;;;;;;;;;;5054306;28;20079;-65
2022/01/16 02:49:25;;;;;;;0.35;0.10;;;;;;;;;;5054219;28;20040;-65
2022/01/16 02:51:52;;;;;;;0.35;0.10;;;;;;;;;;5054448;28;20533;-64
2022/01/16 02:54:17;;;;;;;1.27;0.00;;;;;;;;;;5052990;28;20024;-65
2022/01/16 02:56:45;;;;;;;0.20;0.10;;;;;;;;;;5054355;28;20025;-65
2022/01/16 02:59:10;;;;;;;0.77;0.10;;;;;;;;;;5054162;28;20021;-65
2022/01/16 03:01:35;;;;;;;0.77;0.20;;;;;;;;;;5054161;28;20388;-64
2022/01/16 03:04:01;;;;;;;0.30;0.10;;;;;;;;;;5053957;28;20035;-65
2022/01/16 03:06:27;;;;;;;0.40;0.10;;;;;;;;;;5054088;28;20063;-65
2022/01/16 03:08:52;;;;;;;0.52;0.10;;;;;;;;;;5052609;28;20357;-65
2022/01/16 03:11:24;;;;;;;0.10;0.10;;;;;;;;;;5053912;28;20663;-65
2022/01/16 03:13:50;;;;;;;1.38;0.28;;;;;;;;;;5054049;28;20262;-65
2022/01/16 03:16:20;;;;;;;0.73;0.28;;;;;;;;;;5053822;28;20230;-64
2022/01/16 03:24:13;;;;;;;0.15;0.03;;;;;;;;;;5053694;28;20074;-64
2022/01/16 03:26:38;;;;;;;1.00;0.20;;;;;;;;;;5053648;28;20028;-65
2022/01/16 03:29:03;;;;;;;0.82;0.20;;;;;;;;;;5053456;28;20017;-64
2022/01/16 03:31:28;;;;;;;0.20;0.20;;;;;;;;;;5052452;28;20033;-64
2022/01/16 03:33:54;;;;;;;0.43;0.10;;;;;;;;;;5053727;28;20036;-65
2022/01/16 03:36:20;;;;;;;0.35;0.10;;;;;;;;;;5052103;28;20028;-65
2022/01/16 03:38:45;;;;;;;1.10;0.20;;;;;;;;;;5053521;28;20032;-65
2022/01/16 03:41:10;;;;;;;0.40;0.10;;;;;;;;;;5053066;28;20021;-64
2022/01/16 03:43:35;;;;;;;0.75;0.10;;;;;;;;;;5052036;28;20332;-65
2022/01/16 03:46:01;;;;;;;1.58;0.10;;;;;;;;;;5053325;28;20571;-64
2022/01/16 03:48:26;;;;;;;0.10;0.10;;;;;;;;;;5053257;28;20500;-65
2022/01/16 03:50:51;;;;;;;0.10;0.10;;;;;;;;;;5053064;28;20031;-64
2022/01/16 03:53:17;;;;;;;1.02;0.10;;;;;;;;;;5051779;28;20263;-65
2022/01/16 03:55:42;;;;;;;0.60;0.30;;;;;;;;;;5053194;28;20017;-65
2022/01/16 03:58:07;;;;;;;0.10;0.10;;;;;;;;;;5053274;28;20033;-64
2022/01/16 04:00:32;;;;;;;0.15;0.08;;;;;;;;;;5053053;28;20028;-64
2022/01/16 04:02:58;;;;;;;0.22;0.00;;;;;;;;;;5051721;28;20021;-64
2022/01/16 04:05:23;;;;;;;0.20;0.10;;;;;;;;;;5052523;28;20431;-64
2022/01/16 04:07:48;;;;;;;0.82;0.20;;;;;;;;;;5052973;28;20299;-65
2022/01/16 04:10:13;;;;;;;1.73;0.50;;;;;;;;;;5052761;28;20021;-65
2022/01/16 04:12:39;;;;;;;0.20;0.10;;;;;;;;;;5051537;28;20163;-64
2022/01/16 04:17:37;;;;;;;0.08;0.00;;;;;;;;;;5052850;28;20017;-64
2022/01/16 04:20:02;;;;;;;0.43;0.10;;;;;;;;;;5052592;28;20530;-64
2022/01/16 04:22:27;;;;;;;0.10;0.10;;;;;;;;;;5052960;28;20245;-64
2022/01/16 04:24:52;;;;;;;0.20;0.00;;;;;;;;;;5052309;28;20432;-67
2022/01/16 04:27:17;;;;;;;0.65;0.10;;;;;;;;;;5052421;28;20119;-65
2022/01/16 04:29:43;;;;;;;0.10;0.10;;;;;;;;;;5052126;28;20029;-65
2022/01/16 04:32:08;;;;;;;0.68;0.10;;;;;;;;;;5052447;28;20032;-66
2022/01/16 04:34:33;;;;;;;0.73;0.17;;;;;;;;;;5052513;28;20373;-65
2022/01/16 04:36:59;;;;;;;0.90;0.10;;;;;;;;;;5052308;28;20061;-65
2022/01/16 04:39:31;;;;;;;0.53;0.10;;;;;;;;;;5051000;28;20412;-64
2022/01/16 04:44:40;;;;;;;0.35;0.03;;;;;;;;;;5052522;28;20035;-65
2022/01/16 04:47:05;;;;;;;0.50;0.13;;;;;;;;;;5052039;28;20028;-65
2022/01/16 04:49:31;;;;;;;0.53;0.10;;;;;;;;;;5052276;28;20254;-66
2022/01/16 04:51:56;;;;;;;0.37;0.10;;;;;;;;;;5052265;28;20304;-66
2022/01/16 04:54:21;;;;;;;0.57;0.17;;;;;;;;;;5051923;28;20333;-65
2022/01/16 04:56:46;;;;;;;0.20;0.10;;;;;;;;;;5052495;28;20032;-65
2022/01/16 04:59:11;;;;;;;0.03;0.03;;;;;;;;;;5051882;28;20457;-65
2022/01/16 05:01:36;;;;;;;0.50;0.03;;;;;;;;;;5052029;28;20270;-65
2022/01/16 05:04:02;;;;;;;0.32;0.00;;;;;;;;;;5051967;28;20020;-64
2022/01/16 05:06:27;;;;;;;0.13;0.10;;;;;;;;;;5052053;28;20058;-65
2022/01/16 05:08:52;;;;;;;0.47;0.00;;;;;;;;;;5051934;28;20100;-65
2022/01/16 05:11:24;;;;;;;0.40;0.08;;;;;;;;;;5051856;28;20254;-64
2022/01/16 05:18:58;;;;;;;0.90;0.10;;;;;;;;;;5052059;28;20032;-65
2022/01/16 05:21:24;;;;;;;0.75;0.13;;;;;;;;;;5051728;28;20408;-66
2022/01/16 05:23:49;;;;;;;0.57;0.10;;;;;;;;;;5052039;28;20484;-67
2022/01/16 05:26:17;;;;;;;0.10;0.10;;;;;;;;;;5051775;28;20471;-65
2022/01/16 05:28:42;;;;;;;0.30;0.10;;;;;;;;;;5051862;28;20519;-66
2022/01/16 05:31:07;;;;;;;0.90;0.20;;;;;;;;;;5051535;28;20147;-65
2022/01/16 05:33:32;;;;;;;0.30;0.10;;;;;;;;;;5051946;28;20475;-65
2022/01/16 05:35:58;;;;;;;0.50;0.13;;;;;;;;;;5052157;28;20036;-65
2022/01/16 05:38:23;;;;;;;0.32;0.32;;;;;;;;;;5051999;28;20721;-65
2022/01/16 05:40:48;;;;;;;0.30;0.03;;;;;;;;;;5052125;28;20029;-66
2022/01/16 05:43:14;;;;;;;0.73;0.10;;;;;;;;;;5054464;28;20035;-65
2022/01/16 05:45:39;;;;;;;0.35;0.00;;;;;;;;;;5055741;28;20368;-65
2022/01/16 05:48:04;;;;;;;0.23;0.10;;;;;;;;;;5055559;28;20055;-65
2022/01/16 05:50:31;;;;;;;0.90;0.10;;;;;;;;;;5055562;28;20745;-66
2022/01/16 05:52:57;;;;;;;0.40;0.10;;;;;;;;;;5055354;28;20388;-65
2022/01/16 05:55:22;;;;;;;0.82;0.35;;;;;;;;;;5055266;28;20025;-66
2022/01/16 05:57:47;;;;;;;0.75;0.10;;;;;;;;;;5055494;28;20053;-65
2022/01/16 06:00:14;;;;;;;0.47;0.20;;;;;;;;;;5055492;28;20029;-65
2022/01/16 06:02:39;;;;;;;0.65;0.20;;;;;;;;;;5055062;28;20250;-65
2022/01/16 06:05:05;;;;;;;0.57;0.20;;;;;;;;;;5054980;28;20068;-66
2022/01/16 06:07:30;;;;;;;0.52;0.10;;;;;;;;;;5055434;28;20017;-65
2022/01/16 06:09:55;;;;;;;0.03;0.00;;;;;;;;;;5055192;28;20476;-65
2022/01/16 06:12:21;;;;;;;0.20;0.10;;;;;;;;;;5055069;28;20257;-65
2022/01/16 06:14:46;;;;;;;0.55;0.20;;;;;;;;;;5055100;28;20040;-65
2022/01/16 06:17:11;;;;;;;0.10;0.00;;;;;;;;;;5054752;28;20449;-65
2022/01/16 06:19:36;;;;;;;0.30;0.10;;;;;;;;;;5055081;28;20017;-66
2022/01/16 06:22:02;;;;;;;1.00;0.10;;;;;;;;;;5054905;28;20512;-65
2022/01/16 06:24:27;;;;;;;0.25;0.10;;;;;;;;;;5054924;28;20063;-66
2022/01/16 06:26:52;;;;;;;0.40;0.10;;;;;;;;;;5054773;28;20027;-66
2022/01/16 06:29:18;;;;;;;0.20;0.13;;;;;;;;;;5054670;28;20640;-65
2022/01/16 06:31:44;;;;;;;0.28;0.00;;;;;;;;;;5054936;28;20442;-66
2022/01/16 06:34:09;;;;;;;0.82;0.10;;;;;;;;;;5053418;28;20040;-65
2022/01/16 06:36:35;;;;;;;0.75;0.25;;;;;;;;;;5054715;28;20039;-65
2022/01/16 06:39:00;;;;;;;0.65;0.10;;;;;;;;;;5054517;28;20460;-65
2022/01/16 06:41:25;;;;;;;0.85;0.20;;;;;;;;;;5054394;28;20021;-65
2022/01/16 06:43:51;;;;;;;0.20;0.10;;;;;;;;;;5054618;28;20009;-65
2022/01/16 06:46:16;;;;;;;1.07;0.00;;;;;;;;;;5054451;28;20732;-64
2022/01/16 06:48:41;;;;;;;0.50;0.10;;;;;;;;;;5054504;28;20289;-65
2022/01/16 06:51:07;;;;;;;0.10;0.10;;;;;;;;;;5054453;28;20021;-64
2022/01/16 06:53:32;;;;;;;0.50;0.10;;;;;;;;;;5053944;28;20025;-64
2022/01/16 06:55:57;;;;;;;1.13;0.30;;;;;;;;;;5054398;28;20100;-65
2022/01/16 06:58:23;;;;;;;1.70;0.20;;;;;;;;;;5054236;28;20492;-65
2022/01/16 07:00:48;;;;;;;0.98;0.15;;;;;;;;;;5054129;28;20025;-66
2022/01/16 07:03:14;;;;;;;0.52;0.25;;;;;;;;;;5053907;28;20021;-66
2022/01/16 07:05:39;;;;;;;0.70;0.10;;;;;;;;;;5054056;28;20512;-65
2022/01/16 07:08:04;;;;;;;0.30;0.05;;;;;;;;;;5053998;28;20404;-66
2022/01/16 07:10:30;;;;;;;0.30;0.10;;;;;;;;;;5054100;28;20013;-65
2022/01/16 07:12:55;;;;;;;0.28;0.17;;;;;;;;;;5053843;28;20036;-65
2022/01/16 07:15:20;;;;;;;0.10;0.03;;;;;;;;;;5053700;28;20036;-65
2022/01/16 07:17:45;;;;;;;0.60;0.17;;;;;;;;;;5054099;28;20021;-65
2022/01/16 07:20:11;;;;;;;0.97;0.10;;;;;;;;;;5053654;28;20257;-65
2022/01/16 07:22:36;;;;;;;0.70;0.15;;;;;;;;;;5052634;28;20238;-65
2022/01/16 07:25:01;;;;;;;0.30;0.10;;;;;;;;;;5053672;28;20055;-64
2022/01/16 07:27:26;;;;;;;0.98;0.10;;;;;;;;;;5053872;28;20075;-65
2022/01/16 07:29:52;;;;;;;0.10;0.00;;;;;;;;;;5053790;28;20033;-65
2022/01/16 07:32:17;;;;;;;0.22;0.10;;;;;;;;;;5053476;28;20052;-65
2022/01/16 07:34:42;;;;;;;0.93;0.10;;;;;;;;;;5053595;28;20025;-65
2022/01/16 07:37:07;;;;;;;0.40;0.10;;;;;;;;;;5053228;28;20808;-64
2022/01/16 07:39:32;;;;;;;0.23;0.10;;;;;;;;;;5053648;28;20305;-65
2022/01/16 07:41:58;;;;;;;0.20;0.10;;;;;;;;;;5053273;28;20021;-66
2022/01/16 07:44:23;;;;;;;0.63;0.10;;;;;;;;;;5053344;28;20456;-66
2022/01/16 07:46:48;;;;;;;0.17;0.07;;;;;;;;;;5053349;28;20052;-66
2022/01/16 07:49:13;;;;;;;0.35;0.10;;;;;;;;;;5053068;28;20249;-66
2022/01/16 07:51:38;;;;;;;0.10;0.00;;;;;;;;;;5053370;28;20056;-65
2022/01/16 07:54:04;;;;;;;0.10;0.10;;;;;;;;;;5053174;28;20491;-65
2022/01/16 07:56:29;;;;;;;0.93;0.10;;;;;;;;;;5053198;28;20025;-65
2022/01/16 07:58:54;;;;;;;0.45;0.40;;;;;;;;;;5052958;28;20294;-65
2022/01/16 08:01:19;;;;;;;0.73;0.10;;;;;;;;;;5052796;28;20032;-65
2022/01/16 08:03:44;;;;;;;0.17;0.10;;;;;;;;;;5052272;28;20021;-65
2022/01/16 08:06:10;;;;;;;1.45;0.00;;;;;;;;;;5052716;28;20048;-65
2022/01/16 08:08:36;;;;;;;0.52;0.10;;;;;;;;;;5052954;28;20020;-65
2022/01/16 08:11:01;;;;;;;0.10;0.10;;;;;;;;;;5052666;28;20191;-66
2022/01/16 08:13:27;;;;;;;0.30;0.10;;;;;;;;;;5052821;28;20049;-65
2022/01/16 08:15:52;;;;;;;0.47;0.10;;;;;;;;;;5052895;28;20033;-65
2022/01/16 08:18:17;;;;;;;0.00;0.00;;;;;;;;;;5052750;28;20032;-66
2022/01/16 08:20:42;;;;;;;0.15;0.00;;;;;;;;;;5052610;28;20379;-65
2022/01/16 08:23:08;;;;;;;0.10;0.03;;;;;;;;;;5052364;28;20127;-65
2022/01/16 08:25:33;;;;;;;1.13;0.13;;;;;;;;;;5052702;28;20032;-65
2022/01/16 08:27:58;;;;;;;0.65;0.35;;;;;;;;;;5052688;28;20253;-65
2022/01/16 08:30:23;;;;;;;0.70;0.40;;;;;;;;;;5052470;28;20025;-64
2022/01/16 08:32:49;;;;;;;0.60;0.10;;;;;;;;;;5052427;28;20021;-65
2022/01/16 08:35:14;;;;;;;0.52;0.05;;;;;;;;;;5052540;28;20417;-65
2022/01/16 08:37:39;;;;;;;0.35;0.10;;;;;;;;;;5051114;28;20079;-65
2022/01/16 08:40:05;;;;;;;0.05;0.00;;;;;;;;;;5052252;28;20031;-65
2022/01/16 08:42:31;;;;;;;1.48;0.10;;;;;;;;;;5052408;28;20017;-65
2022/01/16 08:44:56;;;;;;;1.17;0.10;;;;;;;;;;5052486;28;20017;-65
2022/01/16 08:47:21;;;;;;;0.32;0.10;;;;;;;;;;5052144;28;20013;-65
2022/01/16 08:49:46;;;;;;;0.68;0.10;;;;;;;;;;5052373;28;20029;-65
2022/01/16 08:52:12;;;;;;;0.40;0.00;;;;;;;;;;5052147;28;20025;-65
2022/01/16 08:54:37;;;;;;;0.40;0.10;;;;;;;;;;5052228;28;20258;-65
2022/01/16 08:57:03;;;;;;;0.45;0.10;;;;;;;;;;5052246;28;20264;-65
2022/01/16 08:59:28;;;;;;;0.25;0.03;;;;;;;;;;5052096;28;20021;-66
2022/01/16 09:01:53;;;;;;;0.50;0.10;;;;;;;;;;5052151;28;20017;-65
2022/01/16 09:04:18;;;;;;;0.20;0.10;;;;;;;;;;5051921;28;20607;-66
2022/01/16 09:06:43;;;;;;;0.10;0.00;;;;;;;;;;5050729;28;20254;-66
2022/01/16 09:09:09;;;;;;;0.20;0.00;;;;;;;;;;5051677;28;20336;-65
2022/01/16 09:11:34;;;;;;;0.20;0.00;;;;;;;;;;5052134;28;20029;-65
2022/01/16 09:13:59;;;;;;;0.50;0.03;;;;;;;;;;5052095;28;20047;-65
2022/01/16 09:16:24;;;;;;;0.97;0.10;;;;;;;;;;5055152;28;20246;-66
2022/01/16 09:18:50;;;;;;;0.45;0.00;;;;;;;;;;5056004;28;20242;-65
2022/01/16 09:21:16;;;;;;;0.53;0.20;;;;;;;;;;5055872;28;20120;-65
2022/01/16 09:23:42;;;;;;;0.70;0.00;;;;;;;;;;5056150;28;20242;-65
2022/01/16 09:26:07;;;;;;;0.30;0.20;;;;;;;;;;5055629;28;20388;-65
2022/01/16 09:28:33;;;;;;;0.37;0.10;;;;;;;;;;5056101;28;20099;-65
2022/01/16 09:30:58;;;;;;;1.35;0.13;;;;;;;;;;5055752;28;20253;-66
2022/01/16 09:33:23;;;;;;;0.93;0.20;;;;;;;;;;5055694;28;20017;-66
2022/01/16 09:35:48;;;;;;;0.27;0.00;;;;;;;;;;5056055;28;20133;-65
2022/01/16 09:38:14;;;;;;;0.23;0.10;;;;;;;;;;5054410;28;20047;-65
2022/01/16 09:40:42;;;;;;;0.00;0.00;;;;;;;;;;5055749;28;20729;-65
2022/01/16 09:43:08;;;;;;;0.10;0.10;;;;;;;;;;5055284;28;20025;-65
2022/01/16 09:45:33;;;;;;;0.55;0.10;;;;;;;;;;5055758;28;20087;-65
2022/01/16 09:47:58;;;;;;;0.32;0.13;;;;;;;;;;5055701;28;20060;-65
2022/01/16 09:50:25;;;;;;;0.20;0.10;;;;;;;;;;5055459;28;20060;-65
2022/01/16 09:52:51;;;;;;;0.32;0.10;;;;;;;;;;5055325;28;20032;-65
2022/01/16 09:55:16;;;;;;;0.30;0.10;;;;;;;;;;5055052;28;20021;-65
2022/01/16 09:57:41;;;;;;;1.27;0.08;;;;;;;;;;5055576;28;20021;-65
2022/01/16 10:00:09;;;;;;;0.10;0.00;;;;;;;;;;5055232;28;20035;-65
2022/01/16 10:02:34;;;;;;;0.55;0.28;;;;;;;;;;5055222;28;20312;-65
2022/01/16 10:04:59;;;;;;;0.10;0.00;;;;;;;;;;5054850;28;20084;-65
2022/01/16 10:07:24;;;;;;;0.10;0.00;;;;;;;;;;5055071;28;20036;-65
2022/01/16 10:10:09;;;;;;;0.10;0.00;;;;;;;;;;5055347;28;20211;-65
2022/01/16 10:12:35;;;;;;;;;;;;;;;;;;5055747;28;20017;-66
2022/01/16 10:15:14;;;;;;;1.05;0.10;;;;;;;;;;5054946;28;19916;-66
2022/01/16 10:17:43;;;;;;;0.88;0.30;;;;;;;;;;5055118;28;20067;-65
2022/01/16 10:20:09;;;;;;;1.17;0.20;;;;;;;;;;5054853;28;20108;-65
2022/01/16 10:23:01;;;;;;;0.25;0.00;;;;;;;;;;5055067;28;20092;-66
2022/01/16 10:25:41;;;;;;;0.10;0.10;;;;;;;;;;5052645;28;20033;-65
2022/01/16 10:28:15;;;;;;;0.40;0.40;;;;;;;;;;5054004;28;20460;-65
2022/01/16 10:30:41;;;;;;;0.60;0.10;;;;;;;;;;5054859;28;20027;-66
2022/01/16 10:33:13;;;;;;;1.95;0.13;;;;;;;;;;5054532;28;20021;-65
2022/01/16 10:35:39;;;;;;;0.25;0.20;;;;;;;;;;5054814;28;20025;-65
2022/01/16 10:38:07;;;;;;;0.40;0.00;;;;;;;;;;5054629;28;20071;-64
2022/01/16 10:40:34;;;;;;;0.85;0.25;;;;;;;;;;5054946;28;20024;-66
2022/01/16 10:43:05;;;;;;;0.10;0.10;;;;;;;;;;5054318;28;20028;-65
2022/01/16 10:45:30;;;;;;;0.30;0.10;;;;;;;;;;5054889;28;20017;-65
2022/01/16 10:47:57;;;;;;;0.45;0.10;;;;;;;;;;5054853;28;20027;-65
2022/01/16 10:50:22;;;;;;;0.13;0.00;;;;;;;;;;5054405;28;20059;-65
2022/01/16 10:52:51;;;;;;;1.00;0.10;;;;;;;;;;5054443;28;20013;-65
2022/01/16 10:55:17;;;;;;;0.22;0.13;;;;;;;;;;5054261;28;20492;-65
2022/01/16 10:57:43;;;;;;;0.32;0.10;;;;;;;;;;5054428;28;20469;-65
2022/01/16 11:00:12;;;;;;;0.20;0.10;;;;;;;;;;5054123;28;20052;-65
2022/01/16 11:02:38;;;;;;;0.50;0.10;;;;;;;;;;5054299;28;20044;-65
2022/01/16 11:05:08;;;;;;;0.30;0.00;;;;;;;;;;5053758;28;20079;-65
2022/01/16 11:07:33;;;;;;;0.32;0.17;;;;;;;;;;5054155;28;20125;-65
2022/01/16 11:10:00;;;;;;;0.30;0.10;;;;;;;;;;5054206;28;20108;-65
2022/01/16 11:12:25;;;;;;;0.65;0.20;;;;;;;;;;5054410;28;20021;-65
2022/01/16 11:14:50;;;;;;;0.30;0.03;;;;;;;;;;5053926;28;20079;-65
2022/01/16 11:17:16;;;;;;;0.15;0.00;;;;;;;;;;5053801;28;20773;-66
2022/01/16 11:19:41;;;;;;;0.38;0.00;;;;;;;;;;5053974;28;20127;-65
2022/01/16 11:22:10;;;;;;;0.50;0.10;;;;;;;;;;5053792;28;20067;-65
2022/01/16 11:24:48;;;;;;;0.10;0.00;;;;;;;;;;5053923;28;20250;-65
2022/01/16 11:27:16;;;;;;;0.20;0.00;;;;;;;;;;5053465;28;20025;-65
2022/01/16 11:29:42;;;;;;;1.27;0.28;;;;;;;;;;5053768;28;20526;-65
2022/01/16 11:32:08;;;;;;;0.10;0.10;;;;;;;;;;5053425;28;20037;-66
2022/01/16 11:34:34;;;;;;;0.57;0.10;;;;;;;;;;5053671;28;20025;-66
2022/01/16 11:36:59;;;;;;;0.57;0.00;;;;;;;;;;5052157;28;20028;-66
2022/01/16 11:39:33;;;;;;;0.30;0.00;;;;;;;;;;5053380;28;20354;-65
2022/01/16 11:41:59;;;;;;;0.10;0.10;;;;;;;;;;5053402;28;20278;-65
2022/01/16 11:44:27;;;;;;;0.20;0.10;;;;;;;;;;5053406;28;20032;-66
2022/01/16 11:46:55;;;;;;;0.45;0.25;;;;;;;;;;5053300;28;20140;-65
2022/01/16 11:49:36;;;;;;;0.20;0.20;;;;;;;;;;5053181;28;20025;-65
2022/01/16 11:52:12;;;;;;;0.38;0.00;;;;;;;;;;5053280;28;20021;-65
2022/01/16 11:55:00;;;;;;;0.22;0.10;;;;;;;;;;5053281;28;20040;-65
2022/01/16 11:57:26;;;;;;;0.85;0.10;;;;;;;;;;5052852;28;20033;-65
2022/01/16 12:00:12;;;;;;;0.10;0.00;;;;;;;;;;5053272;28;20388;-65
2022/01/16 12:02:38;;;;;;;0.60;0.15;;;;;;;;;;5052402;28;20048;-65
2022/01/16 12:05:03;;;;;;;0.20;0.10;;;;;;;;;;5052558;28;20049;-66
2022/01/16 12:07:31;;;;;;;0.88;0.17;;;;;;;;;;5052975;28;20029;-65
2022/01/16 12:09:59;;;;;;;0.20;0.15;;;;;;;;;;5053024;28;20021;-67
2022/01/16 12:12:27;;;;;;;0.52;0.00;;;;;;;;;;5053215;28;20020;-66
2022/01/16 12:15:08;;;;;;;0.25;0.10;;;;;;;;;;5052761;28;20427;-65
2022/01/16 12:17:42;;;;;;;0.13;0.00;;;;;;;;;;5051678;28;20013;-67
2022/01/16 12:20:11;;;;;;;0.52;0.10;;;;;;;;;;5052664;28;20017;-65
2022/01/16 12:22:42;;;;;;;0.57;0.13;;;;;;;;;;5052881;28;20469;-65
2022/01/16 12:25:08;;;;;;;0.88;0.10;;;;;;;;;;5052408;28;20451;-65
2022/01/16 12:27:36;;;;;;;0.10;0.03;;;;;;;;;;5052826;28;20059;-65
2022/01/16 12:30:12;;;;;;;0.52;0.10;;;;;;;;;;5052560;28;20021;-65
2022/01/16 12:32:49;;;;;;;0.00;0.00;;;;;;;;;;5052658;28;20029;-66
2022/01/16 12:35:14;;;;;;;0.20;0.10;;;;;;;;;;5052295;28;20052;-65
2022/01/16 12:37:40;;;;;;;0.50;0.10;;;;;;;;;;5052569;28;20094;-65
2022/01/16 12:40:06;;;;;;;0.45;0.00;;;;;;;;;;5052338;28;20257;-66
2022/01/16 12:42:31;;;;;;;0.22;0.10;;;;;;;;;;5052370;28;20009;-65
2022/01/16 12:44:56;;;;;;;0.68;0.57;;;;;;;;;;5052221;28;20423;-66
2022/01/16 12:47:22;;;;;;;0.43;0.00;;;;;;;;;;5052172;28;20032;-65
2022/01/16 12:49:48;;;;;;;0.17;0.00;;;;;;;;;;5052009;28;20013;-65
2022/01/16 12:52:14;;;;;;;1.08;0.10;;;;;;;;;;5052197;28;20029;-65
2022/01/16 12:54:39;;;;;;;0.32;0.10;;;;;;;;;;5052240;28;20071;-65
2022/01/16 12:57:04;;;;;;;0.47;0.30;;;;;;;;;;5052209;28;20025;-65
2022/01/16 12:59:35;;;;;;;0.10;0.03;;;;;;;;;;5052486;28;20024;-65
2022/01/16 13:02:01;;;;;;;0.32;0.00;;;;;;;;;;5052037;28;20070;-66
2022/01/16 13:04:28;;;;;;;0.20;0.00;;;;;;;;;;5052148;28;20445;-65
2022/01/16 13:06:54;;;;;;;0.82;0.10;;;;;;;;;;5050444;28;20056;-65
2022/01/16 13:09:20;;;;;;;0.47;0.00;;;;;;;;;;5050585;28;20013;-65
2022/01/16 13:11:46;;;;;;;0.30;0.00;;;;;;;;;;5052187;28;20492;-65
2022/01/16 13:14:19;;;;;;;0.40;0.20;;;;;;;;;;5051843;28;20479;-65
2022/01/16 13:16:48;;;;;;;0.40;0.00;;;;;;;;;;5052362;28;20025;-65
2022/01/16 13:19:18;;;;;;;0.43;0.20;;;;;;;;;;5050901;28;20360;-65
2022/01/16 13:21:48;;;;;;;0.00;0.00;;;;;;;;;;5052042;28;20067;-65
2022/01/16 13:24:47;;;;;;;0.22;0.05;;;;;;;;;;5052202;28;20017;-65
2022/01/16 13:27:21;;;;;;;0.50;0.00;;;;;;;;;;4989773;28;20034;-65
2022/01/16 13:29:48;;;;;;;0.10;0.10;;;;;;;;;;4973999;28;20030;-65
2022/01/16 13:32:14;;;;;;;0.52;0.10;;;;;;;;;;4974093;28;20431;-65
2022/01/16 13:34:46;;;;;;;0.20;0.00;;;;;;;;;;4990250;28;20050;-65
2022/01/16 13:37:12;;;;;;;1.65;0.20;;;;;;;;;;4989724;28;20038;-65
2022/01/16 13:39:43;;;;;;;0.47;0.10;;;;;;;;;;4990280;28;20664;-65
2022/01/16 13:45:21;;;;;;;0.57;0.17;;;;;;;;;;4931837;29;20403;-66
2022/01/16 13:48:03;;;;;;;0.05;0.00;;;;;;;;;;4932417;29;20032;-65
2022/01/16 13:50:33;;;;;;;0.20;0.10;;;;;;;;;;4932306;29;20040;-66
2022/01/16 13:53:12;;;;;;;0.10;0.00;;;;;;;;;;4932106;29;20023;-66
2022/01/16 13:56:04;;;;;;;0.30;0.10;;;;;;;;;;4932244;29;20484;-66
2022/01/16 13:58:30;;;;;;;0.55;0.10;;;;;;;;;;4927595;29;20525;-66
2022/01/16 14:01:00;;;;;;;0.30;0.08;;;;;;;;;;4931654;29;20511;-65
2022/01/16 14:03:26;;;;;;;0.55;0.10;;;;;;;;;;4978512;28;20073;-65
2022/01/16 14:05:52;;;;;;;1.17;0.17;;;;;;;;;;4993562;28;20046;-66
2022/01/16 14:08:17;;;;;;;0.98;0.10;;;;;;;;;;4993441;28;20058;-65
2022/01/16 14:10:42;;;;;;;0.30;0.10;;;;;;;;;;4993524;28;20027;-65
2022/01/16 14:13:10;;;;;;;0.20;0.10;;;;;;;;;;4993123;28;20597;-66
2022/01/16 14:15:35;;;;;;;2.30;0.10;;;;;;;;;;4993536;28;20263;-65
2022/01/16 14:18:07;;;;;;;0.30;0.10;;;;;;;;;;4993483;28;20023;-65
2022/01/16 14:21:59;;;;;;;0.35;0.10;;;;;;;;;;5019914;28;20037;-65
2022/01/16 14:23:20;;;;;;;0.10;0.00;;;;;;;;;;5051637;28;20499;-65
2022/01/16 14:25:45;;;;;;;0.13;0.10;;;;;;;;;;5054890;28;20017;-65
2022/01/16 14:28:11;;;;;;;0.57;0.03;;;;;;;;;;5054811;28;20410;-66
2022/01/16 14:30:36;;;;;;;1.13;0.40;;;;;;;;;;5054989;28;20036;-66
2022/01/16 14:33:01;;;;;;;0.20;0.15;;;;;;;;;;5054648;28;20032;-67
2022/01/16 14:35:26;;;;;;;0.50;0.05;;;;;;;;;;5054739;28;20032;-67
2022/01/16 14:37:51;;;;;;;0.00;0.00;;;;;;;;;;5054894;28;20414;-66
2022/01/16 14:40:17;;;;;;;1.13;0.20;;;;;;;;;;5053364;28;20347;-65
2022/01/16 14:42:44;;;;;;;0.23;0.10;;;;;;;;;;5054570;28;20601;-66
2022/01/16 14:45:09;;;;;;;0.47;0.10;;;;;;;;;;5054296;28;20632;-65
2022/01/16 14:47:35;;;;;;;0.13;0.10;;;;;;;;;;5054610;28;20009;-65
2022/01/16 14:50:01;;;;;;;0.43;0.10;;;;;;;;;;5054483;28;20032;-65
2022/01/16 14:52:26;;;;;;;0.20;0.10;;;;;;;;;;5055036;28;20017;-66
2022/01/16 14:54:52;;;;;;;1.02;0.10;;;;;;;;;;5054084;28;20113;-65
2022/01/16 14:57:20;;;;;;;0.13;0.10;;;;;;;;;;5054311;28;20408;-67
2022/01/16 14:59:46;;;;;;;0.32;0.08;;;;;;;;;;5053206;28;20017;-66
2022/01/16 15:02:11;;;;;;;0.38;0.30;;;;;;;;;;5054140;28;20411;-66
2022/01/16 15:04:36;;;;;;;0.20;0.07;;;;;;;;;;5054206;28;20024;-65
2022/01/16 15:07:01;;;;;;;0.23;0.10;;;;;;;;;;5052663;28;20278;-65
2022/01/16 15:09:27;;;;;;;0.00;0.00;;;;;;;;;;5054356;28;20329;-66
2022/01/16 15:11:52;;;;;;;0.00;0.00;;;;;;;;;;5052961;28;20029;-66
2022/01/16 15:14:17;;;;;;;0.22;0.10;;;;;;;;;;5053651;28;20281;-65
2022/01/16 15:16:43;;;;;;;1.27;0.20;;;;;;;;;;5054008;28;20025;-65
2022/01/16 15:19:15;;;;;;;0.60;0.10;;;;;;;;;;5053647;28;20254;-65
2022/01/16 15:21:50;;;;;;;0.10;0.10;;;;;;;;;;5053893;28;20104;-66
2022/01/16 15:24:16;;;;;;;0.70;0.10;;;;;;;;;;5054105;28;20013;-65
2022/01/16 15:26:41;;;;;;;0.10;0.10;;;;;;;;;;5053806;28;20013;-67